createdAt,value
2022-08-10T00:00:35.179Z,1013.84
2022-08-10T00:03:35.179Z,1013.84
2022-08-10T00:06:35.164Z,1013.82
2022-08-10T00:09:49.959Z,1013.85
2022-08-10T00:12:54.109Z,1013.83
2022-08-10T00:15:44.436Z,1013.83
2022-08-10T00:18:36.352Z,1013.85
2022-08-10T00:21:35.178Z,1013.84
2022-08-10T00:24:35.176Z,1013.85
2022-08-10T00:27:50.383Z,1013.8
2022-08-10T00:30:35.177Z,1013.83
2022-08-10T00:33:35.185Z,1013.8
2022-08-10T00:36:35.182Z,1013.76
2022-08-10T00:39:36.267Z,1013.73
2022-08-10T00:42:35.363Z,1013.69
2022-08-10T00:45:35.179Z,1013.65
2022-08-10T00:48:35.174Z,1013.64
2022-08-10T00:51:40.534Z,1013.61
2022-08-10T00:54:35.166Z,1013.57
2022-08-10T00:57:35.177Z,1013.57
2022-08-10T01:00:35.172Z,1013.54
2022-08-10T01:04:35.880Z,1013.46
2022-08-10T01:06:35.264Z,1013.53
2022-08-10T01:09:35.184Z,1013.54
2022-08-10T01:12:40.197Z,1013.51
2022-08-10T01:15:35.185Z,1013.48
2022-08-10T01:18:37.761Z,1013.51
2022-08-10T01:21:35.177Z,1013.47
2022-08-10T01:24:35.187Z,1013.46
2022-08-10T01:27:35.192Z,1013.49
2022-08-10T01:30:35.194Z,1013.49
2022-08-10T01:33:58.255Z,1013.49
2022-08-10T01:36:35.195Z,1013.51
2022-08-10T01:39:35.235Z,1013.53
2022-08-10T01:42:35.373Z,1013.48
2022-08-10T01:45:45.368Z,1013.46
2022-08-10T01:48:35.196Z,1013.43
2022-08-10T01:51:35.194Z,1013.48
2022-08-10T01:54:35.195Z,1013.54
2022-08-10T01:57:35.195Z,1013.52
2022-08-10T02:00:35.197Z,1013.58
2022-08-10T02:03:35.226Z,1013.57
2022-08-10T02:06:35.196Z,1013.57
2022-08-10T02:09:35.197Z,1013.61
2022-08-10T02:12:35.340Z,1013.63
2022-08-10T02:15:35.195Z,1013.63
2022-08-10T02:18:35.203Z,1013.61
2022-08-10T02:21:35.195Z,1013.62
2022-08-10T02:24:35.193Z,1013.68
2022-08-10T02:27:35.197Z,1013.69
2022-08-10T02:30:35.201Z,1013.69
2022-08-10T02:33:36.823Z,1013.7
2022-08-10T02:36:35.203Z,1013.7
2022-08-10T02:39:35.305Z,1013.75
2022-08-10T02:45:28.769Z,1013.72
2022-08-10T02:45:35.462Z,1013.78
2022-08-10T02:48:35.195Z,1013.72
2022-08-10T02:52:05.818Z,1013.79
2022-08-10T02:54:35.199Z,1013.81
2022-08-10T02:57:35.200Z,1013.85
2022-08-10T03:00:35.203Z,1013.87
2022-08-10T03:03:35.206Z,1013.89
2022-08-10T03:06:35.200Z,1013.92
2022-08-10T03:09:35.201Z,1013.96
2022-08-10T03:12:47.049Z,1013.93
2022-08-10T03:15:35.237Z,1013.89
2022-08-10T03:18:35.208Z,1013.91
2022-08-10T03:21:35.209Z,1013.89
2022-08-10T03:24:35.205Z,1013.89
2022-08-10T03:27:35.204Z,1013.84
2022-08-10T03:30:35.243Z,1013.83
2022-08-10T03:33:35.212Z,1013.77
2022-08-10T03:36:41.203Z,1013.79
2022-08-10T03:39:35.243Z,1013.74
2022-08-10T03:42:35.336Z,1013.71
2022-08-10T03:45:48.661Z,1013.67
2022-08-10T03:48:44.582Z,1013.69
2022-08-10T03:51:35.211Z,1013.66
2022-08-10T03:54:35.226Z,1013.67
2022-08-10T03:57:35.205Z,1013.64
2022-08-10T04:00:35.266Z,1013.62
2022-08-10T04:03:35.208Z,1013.64
2022-08-10T04:06:35.208Z,1013.68
2022-08-10T04:09:42.719Z,1013.69
2022-08-10T04:12:35.355Z,1013.72
2022-08-10T04:15:35.210Z,1013.71
2022-08-10T04:18:35.216Z,1013.74
2022-08-10T04:21:35.209Z,1013.77
2022-08-10T04:24:35.209Z,1013.81
2022-08-10T04:27:35.206Z,1013.8
2022-08-10T04:30:35.208Z,1013.81
2022-08-10T04:33:35.212Z,1013.87
2022-08-10T04:36:35.213Z,1013.89
2022-08-10T04:39:35.277Z,1013.88
2022-08-10T04:42:35.422Z,1013.87
2022-08-10T04:45:47.227Z,1013.94
2022-08-10T04:48:41.933Z,1013.9
2022-08-10T04:51:35.218Z,1013.91
2022-08-10T04:54:35.219Z,1013.93
2022-08-10T04:57:35.221Z,1013.96
2022-08-10T05:00:35.269Z,1013.98
2022-08-10T05:03:35.222Z,1013.98
2022-08-10T05:06:35.213Z,1013.98
2022-08-10T05:10:00.856Z,1014
2022-08-10T05:12:36.684Z,1014.01
2022-08-10T05:15:35.216Z,1014.05
2022-08-10T05:18:35.227Z,1014.06
2022-08-10T05:21:52.312Z,1014.05
2022-08-10T05:24:35.238Z,1014.09
2022-08-10T05:27:35.244Z,1014.03
2022-08-10T05:30:35.233Z,1014.01
2022-08-10T05:33:35.230Z,1014.03
2022-08-10T05:36:35.234Z,1014.04
2022-08-10T05:39:35.277Z,1014.06
2022-08-10T05:42:35.358Z,1014.04
2022-08-10T05:45:35.497Z,1014.08
2022-08-10T05:48:41.307Z,1014.05
2022-08-10T05:51:35.240Z,1014.09
2022-08-10T05:54:35.227Z,1014.11
2022-08-10T05:57:35.228Z,1014.09
2022-08-10T06:00:40.738Z,1014.09
2022-08-10T06:03:35.226Z,1014.09
2022-08-10T06:06:35.226Z,1014.09
2022-08-10T06:09:35.229Z,1014.09
2022-08-10T06:12:38.936Z,1014.09
2022-08-10T06:15:50.241Z,1014.13
2022-08-10T06:18:35.230Z,1014.08
2022-08-10T06:21:35.229Z,1014.11
2022-08-10T06:24:35.239Z,1014.07
2022-08-10T06:27:35.230Z,1014.07
2022-08-10T06:30:35.232Z,1014.14
2022-08-10T06:33:35.230Z,1014.13
2022-08-10T06:36:35.224Z,1014.17
2022-08-10T06:39:36.058Z,1014.15
2022-08-10T06:42:35.328Z,1014.17
2022-08-10T06:45:35.229Z,1014.21
2022-08-10T06:48:35.228Z,1014.19
2022-08-10T06:51:35.233Z,1014.23
2022-08-10T06:54:35.227Z,1014.22
2022-08-10T06:57:35.226Z,1014.19
2022-08-10T07:00:35.291Z,1014.18
2022-08-10T07:03:35.222Z,1014.2
2022-08-10T07:06:35.227Z,1014.19
2022-08-10T07:09:35.226Z,1014.16
2022-08-10T07:12:35.323Z,1014.21
2022-08-10T07:15:58.261Z,1014.23
2022-08-10T07:18:35.308Z,1014.25
2022-08-10T07:21:35.232Z,1014.24
2022-08-10T07:24:35.232Z,1014.26
2022-08-10T07:27:39.367Z,1014.24
2022-08-10T07:30:35.241Z,1014.25
2022-08-10T07:33:35.257Z,1014.27
2022-08-10T07:36:35.248Z,1014.24
2022-08-10T07:39:57.773Z,1014.27
2022-08-10T07:42:35.368Z,1014.23
2022-08-10T07:45:35.233Z,1014.26
2022-08-10T07:48:35.241Z,1014.29
2022-08-10T07:51:35.244Z,1014.3
2022-08-10T07:54:35.246Z,1014.32
2022-08-10T07:57:39.701Z,1014.33
2022-08-10T08:00:35.242Z,1014.35
2022-08-10T08:03:35.238Z,1014.33
2022-08-10T08:06:35.232Z,1014.33
2022-08-10T08:09:35.250Z,1014.32
2022-08-10T08:12:36.958Z,1014.34
2022-08-10T08:16:14.703Z,1014.28
2022-08-10T08:18:37.019Z,1014.28
2022-08-10T08:24:03.998Z,1014.31
2022-08-10T08:24:35.387Z,1014.34
2022-08-10T08:27:35.231Z,1014.33
2022-08-10T08:30:35.236Z,1014.31
2022-08-10T08:33:41.432Z,1014.31
2022-08-10T08:36:35.237Z,1014.29
2022-08-10T08:39:35.244Z,1014.26
2022-08-10T08:42:35.458Z,1014.26
2022-08-10T08:45:35.239Z,1014.22
2022-08-10T08:48:35.237Z,1014.23
2022-08-10T08:52:06.551Z,1014.18
2022-08-10T08:54:35.237Z,1014.17
2022-08-10T08:57:49.239Z,1014.14
2022-08-10T09:00:35.230Z,1014.11
2022-08-10T09:03:35.233Z,1014.11
2022-08-10T09:06:35.238Z,1014.06
2022-08-10T09:09:35.236Z,1014.09
2022-08-10T09:12:35.502Z,1014.08
2022-08-10T09:15:39.430Z,1014.08
2022-08-10T09:18:35.235Z,1014.07
2022-08-10T09:21:35.239Z,1014.07
2022-08-10T09:24:35.242Z,1014.02
2022-08-10T09:27:35.590Z,1013.97
2022-08-10T09:30:38.256Z,1013.96
2022-08-10T09:36:19.050Z,1013.88
2022-08-10T09:36:35.764Z,1013.83
2022-08-10T09:40:06.375Z,1013.82
2022-08-10T09:42:35.374Z,1013.83
2022-08-10T09:45:35.236Z,1013.78
2022-08-10T09:48:35.242Z,1013.74
2022-08-10T09:51:45.138Z,1013.73
2022-08-10T09:54:35.241Z,1013.73
2022-08-10T09:57:43.793Z,1013.73
2022-08-10T10:00:35.240Z,1013.64
2022-08-10T10:03:35.354Z,1013.61
2022-08-10T10:06:35.253Z,1013.57
2022-08-10T10:09:35.242Z,1013.49
2022-08-10T10:12:35.242Z,1013.55
2022-08-10T10:15:35.250Z,1013.5
2022-08-10T10:18:35.247Z,1013.4
2022-08-10T10:21:53.969Z,1013.37
2022-08-10T10:24:35.245Z,1013.4
2022-08-10T10:27:35.347Z,1013.33
2022-08-10T10:30:35.239Z,1013.28
2022-08-10T10:33:35.294Z,1013.26
2022-08-10T10:36:35.240Z,1013.16
2022-08-10T10:39:35.303Z,1013.15
2022-08-10T10:42:45.067Z,1013.06
2022-08-10T10:45:37.884Z,1013.01
2022-08-10T10:48:35.259Z,1012.95
2022-08-10T10:51:35.252Z,1012.96
2022-08-10T10:54:35.251Z,1012.93
2022-08-10T10:57:59.715Z,1012.99
2022-08-10T11:00:35.246Z,1012.95
2022-08-10T11:03:35.298Z,1012.84
2022-08-10T11:06:40.327Z,1012.9
2022-08-10T11:10:05.613Z,1012.92
2022-08-10T11:12:35.246Z,1012.88
2022-08-10T11:15:42.660Z,1012.82
2022-08-10T11:18:35.239Z,1012.75
2022-08-10T11:21:35.246Z,1012.83
2022-08-10T11:24:43.183Z,1012.82
2022-08-10T11:27:35.484Z,1012.84
2022-08-10T11:30:35.251Z,1012.71
2022-08-10T11:33:42.783Z,1012.6
2022-08-10T11:36:35.245Z,1012.57
2022-08-10T11:39:35.289Z,1012.59
2022-08-10T11:42:36.488Z,1012.63
2022-08-10T11:45:35.247Z,1012.58
2022-08-10T11:48:52.613Z,1012.57
2022-08-10T11:51:35.250Z,1012.65
2022-08-10T11:54:35.252Z,1012.62
2022-08-10T11:57:53.693Z,1012.62
2022-08-10T12:00:35.247Z,1012.52
2022-08-10T12:03:35.274Z,1012.46
2022-08-10T12:06:54.553Z,1012.38
2022-08-10T12:10:07.936Z,1012.3
2022-08-10T12:12:35.348Z,1012.32
2022-08-10T12:15:35.249Z,1012.25
2022-08-10T12:18:35.252Z,1012.29
2022-08-10T12:21:35.289Z,1012.23
2022-08-10T12:24:35.252Z,1012.17
2022-08-10T12:27:35.249Z,1012.19
2022-08-10T12:30:35.247Z,1012.16
2022-08-10T12:34:01.673Z,1012.13
2022-08-10T12:36:35.252Z,1012.11
2022-08-10T12:39:35.285Z,1012.19
2022-08-10T12:42:37.192Z,1012.2
2022-08-10T12:45:35.250Z,1012.14
2022-08-10T12:48:35.253Z,1012.05
2022-08-10T12:51:35.250Z,1011.98
2022-08-10T12:54:35.251Z,1011.95
2022-08-10T12:57:35.250Z,1011.92
2022-08-10T13:00:35.260Z,1011.94
2022-08-10T13:04:22.179Z,1011.93
2022-08-10T13:06:35.257Z,1011.88
2022-08-10T13:09:53.990Z,1011.82
2022-08-10T13:12:44.752Z,1011.75
2022-08-10T13:15:50.313Z,1011.71
2022-08-10T13:18:35.252Z,1011.65
2022-08-10T13:21:35.258Z,1011.58
2022-08-10T13:24:35.256Z,1011.57
2022-08-10T13:28:00.179Z,1011.6
2022-08-10T13:30:38.096Z,1011.56
2022-08-10T13:34:04.244Z,1011.55
2022-08-10T13:36:35.257Z,1011.54
2022-08-10T13:39:57.592Z,1011.56
2022-08-10T13:42:35.263Z,1011.47
2022-08-10T13:45:35.253Z,1011.43
2022-08-10T13:48:35.277Z,1011.34
2022-08-10T13:51:53.449Z,1011.35
2022-08-10T13:54:35.259Z,1011.31
2022-08-10T13:57:35.257Z,1011.28
2022-08-10T14:00:38.183Z,1011.21
2022-08-10T14:03:35.258Z,1011.17
2022-08-10T14:06:35.252Z,1011.15
2022-08-10T14:09:35.250Z,1011.2
2022-08-10T14:12:35.356Z,1011.2
2022-08-10T14:15:35.258Z,1011.15
2022-08-10T14:18:35.260Z,1011.05
2022-08-10T14:21:35.264Z,1010.99
2022-08-10T14:24:35.267Z,1011.01
2022-08-10T14:27:40.145Z,1011.04
2022-08-10T14:30:35.260Z,1010.95
2022-08-10T14:33:35.261Z,1010.94
2022-08-10T14:36:35.254Z,1010.89
2022-08-10T14:39:35.332Z,1010.91
2022-08-10T14:42:35.259Z,1010.94
2022-08-10T14:45:35.264Z,1010.8
2022-08-10T14:48:35.254Z,1010.86
2022-08-10T14:51:43.997Z,1010.86
2022-08-10T14:54:35.255Z,1010.83
2022-08-10T14:58:11.368Z,1010.84
2022-08-10T15:00:37.817Z,1010.83
2022-08-10T15:03:59.855Z,1010.77
2022-08-10T15:06:35.258Z,1010.72
2022-08-10T15:09:59.962Z,1010.75
2022-08-10T15:12:35.260Z,1010.81
2022-08-10T15:15:41.698Z,1010.71
2022-08-10T15:18:35.264Z,1010.74
2022-08-10T15:21:35.654Z,1010.69
2022-08-10T15:24:35.264Z,1010.7
2022-08-10T15:27:54.153Z,1010.7
2022-08-10T15:30:35.259Z,1010.64
2022-08-10T15:33:58.019Z,1010.64
2022-08-10T15:36:35.257Z,1010.66
2022-08-10T15:40:20.845Z,1010.62
2022-08-10T15:42:35.268Z,1010.57
2022-08-10T15:45:35.255Z,1010.56
2022-08-10T15:48:35.260Z,1010.49
2022-08-10T15:51:53.240Z,1010.41
2022-08-10T15:54:35.259Z,1010.36
2022-08-10T15:57:35.504Z,1010.38
2022-08-10T16:00:35.262Z,1010.34
2022-08-10T16:03:35.262Z,1010.36
2022-08-10T16:06:35.254Z,1010.3
2022-08-10T16:10:11.598Z,1010.33
2022-08-10T16:12:35.265Z,1010.25
2022-08-10T16:15:35.264Z,1010.19
2022-08-10T16:18:35.269Z,1010.2
2022-08-10T16:21:35.266Z,1010.13
2022-08-10T16:24:35.258Z,1010.14
2022-08-10T16:27:35.378Z,1010.12
2022-08-10T16:30:35.277Z,1010.14
2022-08-10T16:33:53.260Z,1010.11
2022-08-10T16:36:35.274Z,1010.11
2022-08-10T16:39:59.558Z,1010.08
2022-08-10T16:42:35.264Z,1010.08
2022-08-10T16:45:35.278Z,1010.05
2022-08-10T16:48:49.304Z,1010.03
2022-08-10T16:51:35.272Z,1010
2022-08-10T16:54:35.274Z,1009.97
2022-08-10T16:57:35.364Z,1009.98
2022-08-10T17:00:35.278Z,1010
2022-08-10T17:04:05.951Z,1009.99
2022-08-10T17:06:35.277Z,1009.98
2022-08-10T17:09:35.294Z,1009.98
2022-08-10T17:12:35.283Z,1009.98
2022-08-10T17:15:35.274Z,1009.97
2022-08-10T17:18:35.274Z,1009.97
2022-08-10T17:21:35.287Z,1010.01
2022-08-10T17:24:35.281Z,1009.96
2022-08-10T17:28:03.344Z,1009.94
2022-08-10T17:30:43.996Z,1009.93
2022-08-10T17:33:35.274Z,1009.88
2022-08-10T17:36:35.303Z,1009.89
2022-08-10T17:39:35.336Z,1009.87
2022-08-10T17:42:35.339Z,1009.9
2022-08-10T17:45:46.051Z,1009.89
2022-08-10T17:48:35.275Z,1009.97
2022-08-10T17:51:35.270Z,1009.98
2022-08-10T17:54:35.296Z,1009.95
2022-08-10T17:57:35.408Z,1009.94
2022-08-10T18:00:35.270Z,1009.99
2022-08-10T18:03:35.272Z,1009.97
2022-08-10T18:06:35.273Z,1009.98
2022-08-10T18:09:35.276Z,1009.97
2022-08-10T18:12:38.834Z,1009.98
2022-08-10T18:15:35.271Z,1009.99
2022-08-10T18:18:35.274Z,1010
2022-08-10T18:21:35.284Z,1010.03
2022-08-10T18:24:35.272Z,1010.03
2022-08-10T18:27:46.656Z,1010.05
2022-08-10T18:30:36.726Z,1010.07
2022-08-10T18:33:35.274Z,1010.11
2022-08-10T18:36:35.278Z,1010.14
2022-08-10T18:39:35.393Z,1010.13
2022-08-10T18:42:35.273Z,1010.11
2022-08-10T18:45:35.270Z,1010.1
2022-08-10T18:48:35.271Z,1010.13
2022-08-10T18:51:46.454Z,1010.16
2022-08-10T18:54:39.505Z,1010.17
2022-08-10T18:57:35.386Z,1010.1
2022-08-10T19:00:35.282Z,1010.2
2022-08-10T19:03:35.274Z,1010.23
2022-08-10T19:06:35.270Z,1010.29
2022-08-10T19:09:42.179Z,1010.33
2022-08-10T19:12:35.269Z,1010.38
2022-08-10T19:15:35.893Z,1010.39
2022-08-10T19:18:35.284Z,1010.41
2022-08-10T19:21:35.268Z,1010.44
2022-08-10T19:24:35.269Z,1010.46
2022-08-10T19:27:35.320Z,1010.43
2022-08-10T19:30:35.275Z,1010.48
2022-08-10T19:33:35.274Z,1010.46
2022-08-10T19:36:35.282Z,1010.49
2022-08-10T19:39:35.347Z,1010.54
2022-08-10T19:42:35.291Z,1010.58
2022-08-10T19:45:55.650Z,1010.62
2022-08-10T19:48:35.297Z,1010.63
2022-08-10T19:51:35.288Z,1010.62
2022-08-10T19:54:35.302Z,1010.61
2022-08-10T19:57:35.419Z,1010.61
2022-08-10T20:00:35.291Z,1010.61
2022-08-10T20:03:35.287Z,1010.67
2022-08-10T20:06:35.299Z,1010.64
2022-08-10T20:09:35.289Z,1010.64
2022-08-10T20:12:35.297Z,1010.72
2022-08-10T20:15:41.723Z,1010.72
2022-08-10T20:18:35.301Z,1010.74
2022-08-10T20:21:35.296Z,1010.7
2022-08-10T20:24:35.298Z,1010.75
2022-08-10T20:27:59.374Z,1010.8
2022-08-10T20:30:35.301Z,1010.78
2022-08-10T20:33:35.300Z,1010.79
2022-08-10T20:36:35.299Z,1010.85
2022-08-10T20:39:35.390Z,1010.85
2022-08-10T20:42:35.347Z,1010.93
2022-08-10T20:45:52.089Z,1010.92
2022-08-10T20:48:35.303Z,1010.96
2022-08-10T20:51:57.593Z,1010.91
2022-08-10T20:54:35.301Z,1010.92
2022-08-10T20:57:53.871Z,1010.94
2022-08-10T21:00:35.297Z,1010.93
2022-08-10T21:03:35.309Z,1010.93
2022-08-10T21:06:42.521Z,1010.94
2022-08-10T21:09:35.301Z,1010.93
2022-08-10T21:12:35.306Z,1010.92
2022-08-10T21:15:41.758Z,1010.92
2022-08-10T21:18:35.299Z,1010.96
2022-08-10T21:21:37.911Z,1010.99
2022-08-10T21:24:35.303Z,1010.95
2022-08-10T21:27:35.340Z,1010.91
2022-08-10T21:30:35.306Z,1010.91
2022-08-10T21:33:35.304Z,1010.89
2022-08-10T21:36:35.307Z,1010.88
2022-08-10T21:39:41.857Z,1010.95
2022-08-10T21:42:35.306Z,1010.96
2022-08-10T21:45:58.488Z,1010.95
2022-08-10T21:48:35.304Z,1010.95
2022-08-10T21:52:00.247Z,1010.95
2022-08-10T21:54:35.310Z,1010.94
2022-08-10T21:57:43.326Z,1010.96
2022-08-10T22:00:35.383Z,1010.89
2022-08-10T22:03:39.310Z,1010.92
2022-08-10T22:06:35.307Z,1010.95
2022-08-10T22:09:37.153Z,1010.91
2022-08-10T22:12:35.312Z,1010.91
2022-08-10T22:15:42.617Z,1010.91
2022-08-10T22:18:35.312Z,1010.94
2022-08-10T22:21:37.751Z,1010.91
2022-08-10T22:24:35.311Z,1010.96
2022-08-10T22:27:46.050Z,1010.97
2022-08-10T22:30:35.313Z,1010.94
2022-08-10T22:33:35.319Z,1010.88
2022-08-10T22:36:35.322Z,1010.92
2022-08-10T22:40:07.152Z,1010.93
2022-08-10T22:42:58.653Z,1010.94
2022-08-10T22:45:35.320Z,1010.94
2022-08-10T22:48:35.316Z,1010.94
2022-08-10T22:51:35.319Z,1010.91
2022-08-10T22:54:35.317Z,1010.95
2022-08-10T22:57:35.320Z,1011.01
2022-08-10T23:00:35.318Z,1011.02
2022-08-10T23:03:35.671Z,1011.06
2022-08-10T23:06:35.326Z,1011.08
2022-08-10T23:09:35.326Z,1011.05
2022-08-10T23:12:35.536Z,1011.05
2022-08-10T23:15:35.327Z,1011.04
2022-08-10T23:18:35.323Z,1011.06
2022-08-10T23:21:47.885Z,1011.07
2022-08-10T23:24:35.326Z,1011.06
2022-08-10T23:27:38.196Z,1011.06
2022-08-10T23:30:35.333Z,1011.04
2022-08-10T23:33:37.470Z,1011.06
2022-08-10T23:36:35.606Z,1011.08
2022-08-10T23:39:35.354Z,1011.09
2022-08-10T23:42:35.330Z,1011.07
2022-08-10T23:45:52.856Z,1011.06
2022-08-10T23:48:35.326Z,1011.03
2022-08-10T23:51:38.607Z,1011.04
2022-08-10T23:54:35.333Z,1011.02
2022-08-10T23:57:35.329Z,1011.09
